Washington, NC

6:40 PM EDT on October 01, 2016 (GMT -0400)
Warren | | Change Station

Elev 39 ft 35.57 °N, 77.05 °W | Updated 15 minutes ago

Heavy Rain
Heavy Rain
73 °F
Feels Like 73 °F
N
8
Wind Variable Wind from South

Today
High -- | Low -- °F
--% Chance of Precip.
Yesterday
High -- | Low -- °F
Precip. -- in
Pressure 30.03 in
Visibility 2.5 miles
Clouds Scattered Clouds 500 ft
Mostly Cloudy 4800 ft
Overcast 10000 ft
Dew Point 71 °F
Humidity 92%
Rainfall 0.06 in
Snow Depth Not available.
7:03 AM 6:51 PM
New Moon, 1% visible
METAR KOCW 012225Z AUTO 17007KT 2 1/2SM +RA SCT005 BKN048 OVC100 23/22 A3003 RMK AO2 VIS 1 1/2V5 P0006 T02290215
Pressure 30.03 in
Visibility 2.5 miles
Clouds Scattered Clouds 500 ft
Mostly Cloudy 4800 ft
Overcast 10000 ft
Dew Point 71 °F
Humidity 92%
Rainfall 0.06 in
Snow Depth Not available.
7:03 AM 6:51 PM
New Moon, 1% visible
METAR KOCW 012225Z AUTO 17007KT 2 1/2SM +RA SCT005 BKN048 OVC100 23/22 A3003 RMK AO2 VIS 1 1/2V5 P0006 T02290215

10-Day Weather Forecast

Almanac

Astronomy

Oct. 01, 2016 Rise Set
Actual Time
Civil Twilight
Nautical Twilight
Astronomical Twilight
Moon
Length of Visible Light
Length of Day
Tomorrow will be .
, % of the Moon is Illuminated

Today's Extremes

State Highs State Lows

Community

WunderPhotos

Upload Photos

1,943,041 photos uploaded!

WunderBlog® & News

Nearby

Air Quality

  Air Quality AQ Index Pollutant
Not available.

Snow Depth

Station Depth Elevation

Earthquake Activity

City Distance Mag. Time & Date
Minimum magnitude displayed is 2.5.

Coastal Water Temperatures

Place Temperature

Stations

Nearby Weather Stations

Station Location Temp. Windchill Dew Point Humidity Wind Precip. Elev Updated Type
                   

Watches & Warnings

There are currently no watches in effect.